Data for 03/06/2018

Time Sea-Level Adjusted Pressure Absolute Pressure Temperature Relative Humidity Dew Point   
(mb) (inHg) (mb) (inHg) (C) (F) (%) (C) (F)
00:05 1023 30.21 852 25.16 -3.8 25.2 66 -9.3 15.3
00:10 1023 30.21 852 25.16 -3.7 25.3 66 -9.2 15.4
00:15 1023 30.21 852 25.16 -3.9 25 65 -9.4 15
00:20 1023 30.21 852 25.16 -4.1 24.7 66 -9.5 14.9
00:25 1023 30.21 852 25.16 -4.2 24.5 66 -9.6 14.7
00:30 1023 30.21 853 25.19 -4.2 24.4 66 -9.7 14.5
00:35 1023 30.21 853 25.19 -4.4 24.1 67 -9.7 14.6
00:40 1023 30.21 853 25.19 -4.4 24.2 66 -9.8 14.3
00:45 1023 30.21 853 25.19 -4.4 24.1 66 -9.7 14.5
00:50 1023 30.21 853 25.19 -4.3 24.2 65 -10 14
00:55 1023 30.21 853 25.19 -4.3 24.2 64 -10.1 13.9
01:00 1023 30.21 853 25.19 -4.2 24.4 62 -10.4 13.4
01:05 1023 30.21 853 25.19 -4 24.8 60 -10.7 12.8
01:10 1023 30.21 853 25.19 -3.9 25 60 -10.6 13
01:15 1023 30.21 853 25.19 -3.7 25.4 58 -10.8 12.6
01:20 1023 30.21 853 25.19 -3.4 25.8 56 -11.1 12
01:25 1023 30.21 853 25.19 -3.3 26.1 56 -10.7 12.7
01:30 1023 30.21 853 25.19 -3.3 26 58 -10.3 13.4
01:35 1024 30.24 853 25.19 -3.6 25.5 60 -10.2 13.6
01:40 1024 30.24 853 25.19 -3.8 25.2 60 -10.5 13.1
01:45 1024 30.24 853 25.19 -3.7 25.3 58 -10.9 12.5
01:50 1024 30.24 853 25.19 -3.6 25.5 58 -10.7 12.8
01:55 1024 30.24 853 25.19 -3.6 25.5 58 -10.7 12.7
02:00 1024 30.24 853 25.19 -3.6 25.5 58 -10.8 12.6
02:05 1024 30.24 853 25.19 -3.6 25.5 56 -11.1 12
02:10 1024 30.24 853 25.19 -3.5 25.8 55 -11.2 11.9
02:15 1024 30.24 853 25.19 -3.4 25.9 56 -10.9 12.3
02:20 1024 30.24 853 25.19 -3.6 25.6 56 -11.1 12
02:25 1024 30.24 853 25.19 -3.6 25.5 56 -11.1 12
02:30 1024 30.24 853 25.19 -3.7 25.4 57 -11.1 12
02:35 1024 30.24 853 25.19 -3.7 25.4 57 -11 12.2
02:40 1024 30.24 853 25.19 -3.7 25.3 58 -10.8 12.5
02:45 1024 30.24 853 25.19 -3.8 25.2 56 -11.3 11.7
02:50 1024 30.24 853 25.19 -3.7 25.3 56 -11.2 11.9
02:55 1024 30.24 853 25.19 -3.7 25.4 57 -10.9 12.3
03:00 1024 30.24 853 25.19 -4 24.8 61 -10.4 13.2
03:05 1024 30.24 853 25.19 -4.4 24.1 63 -10.4 13.4
03:10 1024 30.24 853 25.19 -4.2 24.5 61 -10.6 12.9
03:15 1024 30.24 853 25.19 -4.1 24.6 59 -10.9 12.4
03:20 1024 30.24 853 25.19 -3.8 25.1 59 -10.7 12.8
03:25 1024 30.24 853 25.19 -3.7 25.4 56 -11.1 11.9
03:30 1024 30.24 853 25.19 -3.5 25.8 55 -11.2 11.9
03:35 1024 30.24 853 25.19 -3.5 25.8 57 -10.8 12.5
03:40 1024 30.24 853 25.19 -3.4 25.8 56 -11 12.3
03:45 1024 30.24 853 25.19 -3.5 25.7 57 -10.8 12.5
03:50 1024 30.24 853 25.19 -3.5 25.7 57 -10.9 12.3
03:55 1024 30.24 853 25.19 -3.5 25.6 56 -11.1 12
04:00 1024 30.24 854 25.22 -3.5 25.7 57 -10.9 12.4
04:05 1024 30.24 854 25.22 -3.5 25.6 57 -11 12.3
04:10 1024 30.24 854 25.22 -3.5 25.6 56 -11 12.1
04:15 1024 30.24 854 25.22 -3.5 25.7 57 -11 12.3
04:20 1024 30.24 854 25.22 -3.5 25.7 55 -11.2 11.8
04:25 1024 30.24 854 25.22 -3.5 25.7 56 -11 12.2
04:30 1024 30.24 854 25.22 -3.5 25.7 57 -10.9 12.3
04:35 1025 30.27 854 25.22 -3.5 25.8 56 -11 12.1
04:40 1025 30.27 854 25.22 -3.4 25.8 56 -11 12.1
04:45 1025 30.27 854 25.22 -3.4 25.9 57 -10.8 12.5
04:50 1025 30.27 854 25.22 -3.4 25.8 57 -10.8 12.5
04:55 1025 30.27 854 25.22 -3.5 25.7 58 -10.7 12.8
05:00 1025 30.27 854 25.22 -3.6 25.5 58 -10.7 12.8
05:05 1025 30.27 854 25.22 -3.6 25.5 58 -10.8 12.5
05:10 1025 30.27 854 25.22 -3.6 25.5 56 -11.1 12
05:15 1025 30.27 854 25.22 -3.3 26 53 -11.6 11.2
05:20 1025 30.27 854 25.22 -3.1 26.4 53 -11.5 11.3
05:25 1025 30.27 854 25.22 -3.1 26.5 53 -11.4 11.4
05:30 1025 30.27 854 25.22 -3.1 26.4 53 -11.4 11.5
05:35 1025 30.27 854 25.22 -3.2 26.3 54 -11.3 11.7
05:40 1025 30.27 854 25.22 -3.1 26.4 53 -11.3 11.6
05:45 1025 30.27 854 25.22 -3.1 26.4 54 -11.1 12
05:50 1025 30.27 854 25.22 -3.1 26.4 54 -11.2 11.8
05:55 1025 30.27 854 25.22 -3.1 26.4 54 -11.2 11.8
06:00 1025 30.27 854 25.22 -3 26.6 51 -11.7 11
06:05 1025 30.27 854 25.22 -2.9 26.8 51 -11.6 11.1
06:10 1025 30.27 854 25.22 -2.9 26.9 50 -11.8 10.8
06:15 1025 30.27 854 25.22 -2.9 26.8 51 -11.7 11
06:20 1025 30.27 854 25.22 -2.8 26.9 51 -11.6 11.1
06:25 1025 30.27 854 25.22 -2.8 26.9 51 -11.6 11
06:30 1025 30.27 854 25.22 -2.8 27 50 -11.8 10.7
06:35 1025 30.27 854 25.22 -2.8 27 51 -11.6 11.2
06:40 1025 30.27 854 25.22 -2.7 27.1 51 -11.5 11.3
06:45 1025 30.27 854 25.22 -2.7 27.2 51 -11.4 11.5
06:50 1025 30.27 854 25.22 -2.6 27.4 51 -11.4 11.5
06:55 1025 30.27 854 25.22 -2.6 27.3 51 -11.3 11.6
07:00 1025 30.27 854 25.22 -2.7 27.1 53 -11.1 12
07:05 1025 30.27 854 25.22 -2.8 27 53 -11.2 11.9
07:10 1025 30.27 854 25.22 -2.8 26.9 53 -11.2 11.9
07:15 1025 30.27 854 25.22 -2.7 27.2 53 -11.1 12.1
07:20 1025 30.27 854 25.22 -2.5 27.5 52 -11.1 12
07:25 1025 30.27 854 25.22 -2.3 27.9 51 -11.1 12
07:30 1025 30.27 854 25.22 -2.1 28.2 53 -10.4 13.2
07:35 1025 30.27 854 25.22 -2.2 28.1 54 -10.3 13.4
07:40 1025 30.27 854 25.22 -2 28.4 53 -10.4 13.3
07:45 1025 30.27 854 25.22 -1.9 28.6 50 -10.9 12.4
07:50 1025 30.27 854 25.22 -1.9 28.6 51 -10.6 12.9
07:55 1025 30.27 854 25.22 -1.8 28.7 51 -10.7 12.8
08:00 1025 30.27 855 25.25 -1.9 28.5 51 -10.7 12.8
08:05 1025 30.27 855 25.25 -1.7 28.9 50 -11 12.3
08:10 1025 30.27 855 25.25 -1.9 28.7 51 -10.8 12.5
08:15 1025 30.27 855 25.25 -2 28.5 51 -10.9 12.5
08:20 1025 30.27 855 25.25 -1.7 28.9 49 -11 12.2
08:25 1025 30.27 855 25.25 -1.4 29.4 47 -11.4 11.5
08:30 1025 30.27 855 25.25 -1 30.1 49 -10.5 13.2
08:35 1026 30.3 855 25.25 -0.7 30.8 48 -10.5 13.1
08:40 1026 30.3 855 25.25 -0.5 31.2 48 -10.3 13.5
08:45 1026 30.3 855 25.25 -0.4 31.4 47 -10.3 13.5
08:50 1026 30.3 855 25.25 -0 32 46 -10.3 13.5
08:55 1026 30.3 855 25.25 0.1 32.2 45 -10.6 12.9
09:00 1025 30.27 855 25.25 0.1 32.1 44 -10.8 12.5
09:05 1026 30.3 855 25.25 0.2 32.3 44 -10.7 12.8
09:10 1026 30.3 855 25.25 -0.1 31.8 45 -10.7 12.7
09:15 1026 30.3 855 25.25 -0 31.9 43 -11 12.1
09:20 1025 30.27 855 25.25 0.4 32.8 43 -10.8 12.5
09:25 1025 30.27 855 25.25 0.7 33.2 41 -11 12.1
09:30 1025 30.27 855 25.25 0.6 33 41 -11.1 12
09:35 1025 30.27 855 25.25 0.7 33.3 41 -11 12.2
09:40 1025 30.27 855 25.25 0.8 33.5 40 -11.4 11.4
09:45 1025 30.27 855 25.25 0.3 32.6 41 -11.4 11.5
09:50 1025 30.27 855 25.25 0.5 32.9 42 -11.1 12
09:55 1025 30.27 855 25.25 0.5 33 42 -11 12.3
10:00 1025 30.27 855 25.25 1.2 34.1 40 -10.9 12.3
10:05 1025 30.27 855 25.25 1.1 34.1 39 -11.5 11.3
10:10 1025 30.27 855 25.25 2.3 36.2 34 -11.9 10.6
10:15 1025 30.27 855 25.25 2.7 36.8 34 -11.7 11
10:20 1025 30.27 855 25.25 1.9 35.4 38 -10.9 12.4
10:25 1025 30.27 855 25.25 2 35.6 36 -11.6 11.2
10:30 1025 30.27 855 25.25 1.7 35.1 37 -11.4 11.5
10:35 1025 30.27 855 25.25 2.7 36.9 33 -11.8 10.7
10:40 1025 30.27 854 25.22 3.3 38 33 -11.3 11.6
10:45 1025 30.27 854 25.22 2.7 36.9 35 -11.4 11.5
10:50 1025 30.27 854 25.22 1.1 34.1 40 -11.1 12
10:55 1025 30.27 854 25.22 1.6 35 38 -11.1 12
11:00 1025 30.27 854 25.22 0.9 33.6 39 -11.7 10.9
11:05 1025 30.27 854 25.22 0.9 33.6 38 -12 10.3
11:10 1025 30.27 854 25.22 0.5 33 41 -11.3 11.7
11:15 1025 30.27 854 25.22 1.6 34.8 38 -11.2 11.9
11:20 1025 30.27 854 25.22 2.9 37.2 34 -11.5 11.2
11:25 1025 30.27 854 25.22 1.7 35.1 39 -10.8 12.6
11:30 1025 30.27 854 25.22 0.2 32.4 43 -11 12.2
11:35 1025 30.27 854 25.22 1.4 34.5 35 -12.4 9.8
11:40 1025 30.27 854 25.22 2.3 36.1 36 -11.5 11.3
11:45 1025 30.27 854 25.22 3 37.4 34 -11.6 11.2
11:50 1025 30.27 854 25.22 3.3 38 34 -11.1 11.9
11:55 1025 30.27 854 25.22 2.6 36.6 35 -11.3 11.6
12:00 1025 30.27 854 25.22 2.1 35.8 36 -11.5 11.2
12:05 1025 30.27 854 25.22 2.2 35.9 36 -11.5 11.4
12:10 1025 30.27 854 25.22 1.2 34.2 39 -11.3 11.7
12:15 1024 30.24 854 25.22 0.7 33.2 41 -11.2 11.8
12:20 1024 30.24 854 25.22 1.3 34.3 36 -12.3 9.8
12:25 1024 30.24 854 25.22 2.3 36.1 33 -12.3 9.9
12:30 1024 30.24 854 25.22 2.5 36.5 35 -11.3 11.6
12:35 1024 30.24 854 25.22 1.7 35.1 34 -12.7 9.1
12:40 1024 30.24 853 25.19 1.3 34.4 36 -12.2 10
12:45 1024 30.24 853 25.19 1.1 34.1 36 -12.3 9.8
12:50 1024 30.24 853 25.19 1 33.9 34 -13 8.6
12:55 1024 30.24 853 25.19 1.1 33.9 35 -12.7 9.1
13:00 1024 30.24 853 25.19 0.7 33.3 32 -14.1 6.6
13:05 1024 30.24 853 25.19 0.8 33.5 37 -12.2 10.1
13:10 1024 30.24 853 25.19 2.3 36.1 34 -12 10.5
13:15 1024 30.24 853 25.19 2.8 37 32 -12.5 9.5
13:20 1024 30.24 853 25.19 1.6 34.9 33 -13.1 8.4
13:25 1024 30.24 853 25.19 1.1 34 34 -13 8.5
13:30 1024 30.24 853 25.19 1 33.9 36 -12.4 9.7
13:35 1024 30.24 853 25.19 2 35.5 32 -13 8.6
13:40 1024 30.24 853 25.19 2.1 35.7 32 -13 8.5
13:45 1024 30.24 853 25.19 1.4 34.5 33 -13.3 8
13:50 1024 30.24 853 25.19 2.3 36.1 29 -14.1 6.6
13:55 1024 30.24 853 25.19 1.7 35.1 29 -14.3 6.2
14:00 1024 30.24 853 25.19 1.7 35.1 31 -13.9 7.1
14:05 1024 30.24 853 25.19 1.3 34.3 29 -14.8 5.4
14:10 1024 30.24 853 25.19 1.5 34.7 29 -14.8 5.4
14:15 1024 30.24 853 25.19 1.2 34.2 30 -14.4 6
14:20 1024 30.24 853 25.19 2 35.7 29 -14.2 6.4
14:25 1024 30.24 853 25.19 2.9 37.1 28 -14.2 6.5
14:30 1024 30.24 853 25.19 1.8 35.2 30 -13.9 7
14:35 1024 30.24 853 25.19 2.5 36.5 29 -13.9 7
14:40 1024 30.24 853 25.19 3.3 38 28 -13.5 7.6
14:45 1024 30.24 853 25.19 3.4 38.1 28 -13.4 7.9
14:50 1024 30.24 853 25.19 2.9 37.3 30 -12.9 8.7
14:55 1024 30.24 853 25.19 1.9 35.4 30 -13.8 7.1
15:00 1023 30.21 853 25.19 1.4 34.5 33 -13.3 8.1
15:05 1023 30.21 853 25.19 2 35.6 32 -13.2 8.2
15:10 1023 30.21 853 25.19 1.7 35.1 31 -13.8 7.1
15:15 1023 30.21 853 25.19 2.1 35.8 32 -13.1 8.5
15:20 1023 30.21 853 25.19 1.5 34.7 33 -13.3 8
15:25 1023 30.21 853 25.19 2.2 36 31 -13.5 7.8
15:30 1023 30.21 853 25.19 2.9 37.3 28 -13.8 7.2
15:35 1023 30.21 852 25.16 2.6 36.8 31 -13 8.6
15:40 1023 30.21 853 25.19 2.9 37.3 31 -12.8 9
15:45 1023 30.21 853 25.19 3 37.5 30 -13 8.6
15:50 1023 30.21 853 25.19 3.5 38.2 28 -13.2 8.2
15:55 1023 30.21 853 25.19 3.3 37.9 30 -12.7 9.2
16:00 1023 30.21 853 25.19 3.2 37.8 29 -13.1 8.3
16:05 1023 30.21 853 25.19 3.2 37.7 30 -12.9 8.8
16:10 1023 30.21 853 25.19 3.1 37.6 29 -13.2 8.2
16:15 1023 30.21 852 25.16 3.1 37.6 31 -12.4 9.7
16:20 1023 30.21 852 25.16 2.8 37 32 -12.5 9.4
16:25 1023 30.21 852 25.16 2.2 36 34 -12.1 10.2
16:30 1023 30.21 852 25.16 1.9 35.5 34 -12.5 9.6
16:35 1023 30.21 852 25.16 1.5 34.7 34 -12.7 9.2
16:40 1023 30.21 852 25.16 1.2 34.2 36 -12.4 9.7
16:45 1023 30.21 852 25.16 1.1 33.9 34 -13.2 8.2
16:50 1023 30.21 852 25.16 0.9 33.6 35 -13.1 8.5
16:55 1023 30.21 852 25.16 0.9 33.7 35 -13 8.5
17:00 1023 30.21 852 25.16 0.8 33.5 34 -13.3 8
17:05 1023 30.21 852 25.16 0.4 32.7 36 -13 8.5
17:10 1023 30.21 852 25.16 0.1 32.1 36 -13.3 8.1
17:15 1023 30.21 852 25.16 -0.2 31.7 38 -12.9 8.8
17:20 1023 30.21 852 25.16 -0.5 31.1 39 -12.8 9
17:25 1023 30.21 852 25.16 -0.9 30.4 40 -12.9 8.8
17:30 1023 30.21 852 25.16 -1 30.2 40 -12.8 8.9
17:35 1023 30.21 852 25.16 -1.1 30.1 42 -12.5 9.5
17:40 1023 30.21 852 25.16 -1.4 29.5 44 -12.2 10.1
17:45 1023 30.21 852 25.16 -1.7 29 46 -11.9 10.5
17:50 1023 30.21 852 25.16 -2 28.3 46 -12.1 10.2
17:55 1023 30.21 852 25.16 -2.5 27.5 50 -11.7 11
18:00 1023 30.21 852 25.16 -3 26.6 51 -11.8 10.8
18:05 1023 30.21 852 25.16 -3.2 26.2 51 -12 10.4
18:10 1023 30.21 852 25.16 -3 26.7 50 -12.1 10.2
18:15 1023 30.21 852 25.16 -2.9 26.7 48 -12.3 9.8
18:20 1023 30.21 852 25.16 -2.6 27.3 48 -12.1 10.3
18:25 1023 30.21 852 25.16 -2.7 27.2 47 -12.4 9.8
18:30 1023 30.21 852 25.16 -3 26.6 51 -11.8 10.7
18:35 1023 30.21 852 25.16 -3.2 26.3 47 -12.9 8.8
18:40 1023 30.21 852 25.16 -2.9 26.7 46 -13 8.5
18:45 1023 30.21 852 25.16 -2.9 26.8 46 -13 8.7
18:50 1023 30.21 852 25.16 -2.7 27.2 44 -13.3 8.1
18:55 1023 30.21 852 25.16 -2.5 27.5 43 -13.3 8
19:00 1023 30.21 852 25.16 -2.4 27.8 45 -12.8 8.9
19:05 1023 30.21 852 25.16 -2.9 26.8 49 -12.1 10.2
19:10 1023 30.21 852 25.16 -3.5 25.8 50 -12.4 9.7
19:15 1023 30.21 852 25.16 -3.8 25.1 52 -12.4 9.7
19:20 1023 30.21 852 25.16 -4.2 24.5 54 -12.2 10.1
19:25 1023 30.21 852 25.16 -4.4 24.1 53 -12.5 9.5
19:30 1023 30.21 852 25.16 -4.7 23.6 54 -12.7 9.2
19:35 1023 30.21 852 25.16 -4.6 23.8 53 -12.7 9.1
19:40 1023 30.21 852 25.16 -4.6 23.7 52 -12.9 8.7
19:45 1023 30.21 852 25.16 -4.4 24.1 51 -13 8.6
19:50 1023 30.21 852 25.16 -4.2 24.4 51 -13 8.6
19:55 1023 30.21 852 25.16 -4.1 24.6 50 -13.2 8.3
20:00 1023 30.21 852 25.16 -4.2 24.4 50 -13.3 8.1
20:05 1023 30.21 852 25.16 -3.7 25.3 48 -13.2 8.2
20:10 1023 30.21 852 25.16 -3.9 25 48 -13.4 7.9
20:15 1023 30.21 852 25.16 -4.1 24.6 49 -13.4 8
20:20 1023 30.21 852 25.16 -4.3 24.3 51 -13.1 8.5
20:25 1023 30.21 852 25.16 -4.3 24.2 51 -13 8.5
20:30 1023 30.21 852 25.16 -4.4 24 51 -13.2 8.2
20:35 1023 30.21 852 25.16 -4.3 24.2 49 -13.6 7.6
20:40 1023 30.21 852 25.16 -4.2 24.4 50 -13.2 8.3
20:45 1023 30.21 852 25.16 -4.2 24.4 51 -12.9 8.9
20:50 1023 30.21 852 25.16 -4.2 24.5 49 -13.3 8
20:55 1023 30.21 852 25.16 -4 24.7 49 -13.3 8.1
21:00 1023 30.21 852 25.16 -3.8 25.1 48 -13.4 7.8
21:05 1023 30.21 852 25.16 -3.9 25 49 -13.2 8.2
21:10 1023 30.21 852 25.16 -4.3 24.2 49 -13.5 7.8
21:15 1023 30.21 852 25.16 -4.4 24 49 -13.5 7.6
21:20 1023 30.21 852 25.16 -4.5 23.8 51 -13.3 8
21:25 1023 30.21 852 25.16 -4.5 23.9 49 -13.6 7.6
21:30 1023 30.21 852 25.16 -4.8 23.3 51 -13.6 7.6
21:35 1023 30.21 852 25.16 -5.2 22.7 52 -13.6 7.5
21:40 1023 30.21 852 25.16 -5.2 22.6 52 -13.6 7.5
21:45 1023 30.21 852 25.16 -5.1 22.8 52 -13.6 7.6
21:50 1023 30.21 852 25.16 -5 23 53 -13.2 8.3
21:55 1023 30.21 852 25.16 -5.2 22.7 56 -12.7 9.1
22:00 1023 30.21 852 25.16 -5.4 22.3 55 -13 8.6
22:05 1023 30.21 852 25.16 -5.3 22.4 53 -13.5 7.8
22:10 1023 30.21 852 25.16 -5.5 22.1 54 -13.3 8
22:15 1023 30.21 852 25.16 -5.6 21.9 53 -13.7 7.3
22:20 1023 30.21 852 25.16 -5.3 22.5 52 -13.7 7.3
22:25 1023 30.21 852 25.16 -5.2 22.6 52 -13.7 7.3
22:30 1023 30.21 852 25.16 -5 23 52 -13.4 7.9
22:35 1023 30.21 853 25.19 -5 23 53 -13.3 8.1
22:40 1023 30.21 853 25.19 -5.2 22.7 54 -13.1 8.3
22:45 1023 30.21 853 25.19 -5.4 22.3 54 -13.2 8.2
22:50 1023 30.21 853 25.19 -5.7 21.7 57 -13 8.6
22:55 1023 30.21 853 25.19 -5.8 21.6 56 -13.2 8.2
23:00 1023 30.21 853 25.19 -5.9 21.4 54 -13.7 7.3
23:05 1023 30.21 852 25.16 -5.5 22.1 53 -13.6 7.6
23:10 1023 30.21 852 25.16 -5.4 22.2 55 -13.1 8.4
23:15 1023 30.21 852 25.16 -5.5 22.1 54 -13.3 8.1
23:20 1023 30.21 852 25.16 -4.5 23.9 52 -12.8 8.9
23:25 1023 30.21 852 25.16 -4.1 24.6 49 -13.4 7.9
23:30 1023 30.21 852 25.16 -3.9 25 48 -13.3 8.1
23:35 1023 30.21 852 25.16 -3.9 25 48 -13.4 8
23:40 1023 30.21 852 25.16 -4.3 24.2 51 -12.9 8.7
23:45 1023 30.21 852 25.16 -5.4 22.3 55 -13 8.6
23:50 1023 30.21 852 25.16 -6.2 20.8 58 -13.1 8.3
23:55 1023 30.21 853 25.19 -6.8 19.7 58 -13.7 7.4
24:00 1023 30.21 853 25.19 -7.3 19 59 -14.1 6.7